createdAt,value
2023-01-07T00:01:41.933Z,94.88
2023-01-07T00:04:11.964Z,94.05
2023-01-07T00:06:39.999Z,94.24
2023-01-07T00:09:08.256Z,95.65
2023-01-07T00:11:37.470Z,96.45
2023-01-07T00:14:05.697Z,96.57
2023-01-07T00:16:34.323Z,97.92
2023-01-07T00:19:02.461Z,96.53
2023-01-07T00:21:29.897Z,94.54
2023-01-07T00:24:01.619Z,93.50
2023-01-07T00:26:32.658Z,93.87
2023-01-07T00:29:00.136Z,93.67
2023-01-07T00:31:32.306Z,93.57
2023-01-07T00:33:59.375Z,93.63
2023-01-07T00:36:31.396Z,93.91
2023-01-07T00:39:30.354Z,93.53
2023-01-07T00:42:15.157Z,92.86
2023-01-07T00:44:41.749Z,94.29
2023-01-07T00:47:08.324Z,94.33
2023-01-07T00:49:34.953Z,96.10
2023-01-07T00:52:01.522Z,96.15
2023-01-07T00:54:28.231Z,96.60
2023-01-07T00:56:54.766Z,97.18
2023-01-07T00:59:21.357Z,97.64
2023-01-07T01:01:47.998Z,97.33
2023-01-07T01:04:15.165Z,96.03
2023-01-07T01:06:41.724Z,96.21
2023-01-07T01:09:08.903Z,97.09
2023-01-07T01:11:35.460Z,97.07
2023-01-07T01:14:02.059Z,96.25
2023-01-07T01:16:28.693Z,94.47
2023-01-07T01:18:55.273Z,95.30
2023-01-07T01:21:21.905Z,95.53
2023-01-07T01:23:48.494Z,97.90
2023-01-07T01:26:17.246Z,98.17
2023-01-07T01:28:44.951Z,97.69
2023-01-07T01:31:11.969Z,96.08
2023-01-07T01:33:38.780Z,95.30
2023-01-07T01:36:08.087Z,96.76
2023-01-07T01:38:34.651Z,97.33
2023-01-07T01:41:01.364Z,96.73
2023-01-07T01:43:35.113Z,96.79
2023-01-07T01:46:34.287Z,97.17
2023-01-07T01:49:08.085Z,95.58
2023-01-07T01:51:38.933Z,96.05
2023-01-07T01:54:08.923Z,97.71
2023-01-07T01:56:40.748Z,98.59
2023-01-07T01:59:12.137Z,97.84
2023-01-07T02:01:39.016Z,96.87
2023-01-07T02:04:10.562Z,97.83
2023-01-07T02:06:50.793Z,98.16
2023-01-07T02:09:17.321Z,98.85
2023-01-07T02:12:10.533Z,97.79
2023-01-07T02:15:03.818Z,97.45
2023-01-07T02:17:59.973Z,97.71
2023-01-07T02:20:44.893Z,96.45
2023-01-07T02:23:32.999Z,96.35
2023-01-07T02:26:37.320Z,98.35
2023-01-07T02:29:09.659Z,100.00
2023-01-07T02:32:02.385Z,100.00
2023-01-07T02:34:43.632Z,99.16
2023-01-07T02:37:43.771Z,99.04
2023-01-07T02:40:22.199Z,100.00
2023-01-07T02:42:57.893Z,99.86
2023-01-07T02:45:30.468Z,99.25
2023-01-07T02:48:01.513Z,97.62
2023-01-07T02:50:28.110Z,97.99
2023-01-07T02:52:54.697Z,98.81
2023-01-07T02:55:31.284Z,100.00
2023-01-07T02:58:19.311Z,100.00
2023-01-07T03:01:23.234Z,100.00
2023-01-07T03:04:04.783Z,99.23
2023-01-07T03:06:46.401Z,98.20
2023-01-07T03:09:25.053Z,97.38
2023-01-07T03:12:18.008Z,97.16
2023-01-07T03:14:48.177Z,97.75
2023-01-07T03:17:20.539Z,97.23
2023-01-07T03:19:57.746Z,96.38
2023-01-07T03:22:28.356Z,95.07
2023-01-07T03:24:58.087Z,96.28
2023-01-07T03:27:27.608Z,97.10
2023-01-07T03:29:56.073Z,97.12
2023-01-07T03:32:41.195Z,96.23
2023-01-07T03:35:08.709Z,93.69
2023-01-07T03:37:35.473Z,93.63
2023-01-07T03:40:06.597Z,95.09
2023-01-07T03:42:42.072Z,93.79
2023-01-07T03:45:17.682Z,96.52
2023-01-07T03:47:47.907Z,94.72
2023-01-07T03:50:15.739Z,95.34
2023-01-07T03:52:42.725Z,92.82
2023-01-07T03:55:10.745Z,93.99
2023-01-07T03:57:37.875Z,95.26
2023-01-07T04:00:06.606Z,97.03
2023-01-07T04:02:33.374Z,96.09
2023-01-07T04:04:59.954Z,96.70
2023-01-07T04:07:26.513Z,96.09
2023-01-07T04:09:53.034Z,95.59
2023-01-07T04:12:19.673Z,95.17
2023-01-07T04:14:46.239Z,94.27
2023-01-07T04:17:12.800Z,93.44
2023-01-07T04:19:39.927Z,95.21
2023-01-07T04:22:07.821Z,100.00
2023-01-07T04:24:34.417Z,97.86
2023-01-07T04:27:01.119Z,97.48
2023-01-07T04:29:27.720Z,96.24
2023-01-07T04:31:54.320Z,97.09
2023-01-07T04:34:20.872Z,97.82
2023-01-07T04:36:47.857Z,97.06
2023-01-07T04:39:14.732Z,96.17
2023-01-07T04:41:41.352Z,95.35
2023-01-07T04:44:08.055Z,95.94
2023-01-07T04:46:34.740Z,96.39
2023-01-07T04:49:01.482Z,96.28
2023-01-07T04:51:28.105Z,96.05
2023-01-07T04:53:56.556Z,96.32
2023-01-07T04:56:23.280Z,98.42
2023-01-07T04:58:49.860Z,99.90
2023-01-07T05:01:16.519Z,100.00
2023-01-07T05:03:43.159Z,100.00
2023-01-07T05:06:10.113Z,100.00
2023-01-07T05:08:36.669Z,98.56
2023-01-07T05:11:04.832Z,98.65
2023-01-07T05:13:32.044Z,98.42
2023-01-07T05:15:58.525Z,99.99
2023-01-07T05:18:25.052Z,99.71
2023-01-07T05:20:51.619Z,99.35
2023-01-07T05:23:18.163Z,99.37
2023-01-07T05:25:44.681Z,97.74
2023-01-07T05:28:12.269Z,96.94
2023-01-07T05:30:39.550Z,96.62
2023-01-07T05:33:07.361Z,96.38
2023-01-07T05:35:34.935Z,98.11
2023-01-07T05:38:01.533Z,98.49
2023-01-07T05:40:28.174Z,95.96
2023-01-07T05:42:54.777Z,95.72
2023-01-07T05:45:21.887Z,95.96
2023-01-07T05:47:49.256Z,94.22
2023-01-07T05:50:15.989Z,93.40
2023-01-07T05:52:42.559Z,92.87
2023-01-07T05:55:09.501Z,94.49
2023-01-07T05:57:36.076Z,93.79
2023-01-07T06:00:03.170Z,92.99
2023-01-07T06:02:29.727Z,92.45
2023-01-07T06:04:56.299Z,92.89
2023-01-07T06:07:22.877Z,90.91
2023-01-07T06:09:49.435Z,91.98
2023-01-07T06:12:16.038Z,92.91
2023-01-07T06:14:42.637Z,94.60
2023-01-07T06:17:09.260Z,96.23
2023-01-07T06:19:35.796Z,100.00
2023-01-07T06:22:02.395Z,99.69
2023-01-07T06:24:28.983Z,99.81
2023-01-07T06:26:55.570Z,99.33
2023-01-07T06:29:22.138Z,98.28
2023-01-07T06:31:48.727Z,97.59
2023-01-07T06:34:15.419Z,96.78
2023-01-07T06:36:41.948Z,96.76
2023-01-07T06:39:08.534Z,97.04
2023-01-07T06:41:35.131Z,96.00
2023-01-07T06:44:01.706Z,96.22
2023-01-07T06:46:28.438Z,96.31
2023-01-07T06:48:55.486Z,96.70
2023-01-07T06:51:23.290Z,96.63
2023-01-07T06:53:49.883Z,97.13
2023-01-07T06:56:16.494Z,97.15
2023-01-07T06:58:43.066Z,97.35
2023-01-07T07:01:09.809Z,97.97
2023-01-07T07:03:36.473Z,98.54
2023-01-07T07:06:03.344Z,99.50
2023-01-07T07:08:29.963Z,99.49
2023-01-07T07:10:56.533Z,99.15
2023-01-07T07:13:23.096Z,100.00
2023-01-07T07:15:49.962Z,100.00
2023-01-07T07:18:18.253Z,100.00
2023-01-07T07:20:48.444Z,100.00
2023-01-07T07:23:15.139Z,100.00
2023-01-07T07:25:42.450Z,100.00
2023-01-07T07:28:09.053Z,100.00
2023-01-07T07:30:46.188Z,100.00
2023-01-07T07:33:15.119Z,100.00
2023-01-07T07:35:42.051Z,100.00
2023-01-07T07:38:08.648Z,100.00
2023-01-07T07:40:35.264Z,100.00
2023-01-07T07:43:11.051Z,99.87
2023-01-07T07:45:40.811Z,100.00
2023-01-07T07:48:08.566Z,100.00
2023-01-07T07:50:35.817Z,100.00
2023-01-07T07:53:02.310Z,100.00
2023-01-07T07:55:28.969Z,100.00
2023-01-07T07:57:57.288Z,100.00
2023-01-07T08:00:24.294Z,100.00
2023-01-07T08:02:51.142Z,100.00
2023-01-07T08:05:17.941Z,100.00
2023-01-07T08:07:44.521Z,100.00
2023-01-07T08:10:11.141Z,100.00
2023-01-07T08:12:38.800Z,100.00
2023-01-07T08:15:07.097Z,99.55
2023-01-07T08:17:34.046Z,99.73
2023-01-07T08:20:00.643Z,99.73
2023-01-07T08:22:27.265Z,99.83
2023-01-07T08:24:53.827Z,99.34
2023-01-07T08:27:21.087Z,99.29
2023-01-07T08:29:47.572Z,99.42
2023-01-07T08:32:14.195Z,99.42
2023-01-07T08:34:40.789Z,100.00
2023-01-07T08:37:07.389Z,100.00
2023-01-07T08:39:33.991Z,99.13
2023-01-07T08:42:00.608Z,98.57
2023-01-07T08:44:27.268Z,97.29
2023-01-07T08:46:54.546Z,97.47
2023-01-07T08:49:21.119Z,97.22
2023-01-07T08:51:47.785Z,96.53
2023-01-07T08:54:14.522Z,97.10
2023-01-07T08:56:41.133Z,96.52
2023-01-07T08:59:07.735Z,96.48
2023-01-07T09:01:34.508Z,96.84
2023-01-07T09:04:01.066Z,96.06
2023-01-07T09:06:27.672Z,83.02
2023-01-07T09:08:54.255Z,65.97
2023-01-07T09:11:20.875Z,56.34
2023-01-07T09:13:47.544Z,51.72
2023-01-07T09:16:14.176Z,49.62
2023-01-07T09:18:40.807Z,47.18
2023-01-07T09:21:07.386Z,50.45
2023-01-07T09:23:34.045Z,47.58
2023-01-07T09:26:00.667Z,46.45
2023-01-07T09:28:27.270Z,47.24
2023-01-07T09:30:56.699Z,50.25
2023-01-07T09:33:23.779Z,51.55
2023-01-07T09:35:50.326Z,54.97
2023-01-07T09:38:16.869Z,57.28
2023-01-07T09:40:45.165Z,60.42
2023-01-07T09:43:17.898Z,61.50
2023-01-07T09:45:49.548Z,64.22
2023-01-07T09:48:30.203Z,66.31
2023-01-07T09:51:06.019Z,66.79
2023-01-07T09:53:50.252Z,67.03
2023-01-07T09:56:25.119Z,68.02
2023-01-07T09:58:51.957Z,68.10
2023-01-07T10:01:25.138Z,67.74
2023-01-07T10:04:16.108Z,65.45
2023-01-07T10:07:00.397Z,65.82
2023-01-07T10:09:57.896Z,65.59
2023-01-07T10:12:42.711Z,68.84
2023-01-07T10:15:27.228Z,66.01
2023-01-07T10:17:59.844Z,68.20
2023-01-07T10:20:52.668Z,68.92
2023-01-07T10:23:51.800Z,65.10
2023-01-07T10:26:38.631Z,66.19
2023-01-07T10:29:12.358Z,66.98
2023-01-07T10:31:39.796Z,66.14
2023-01-07T10:34:14.423Z,64.24
2023-01-07T10:37:00.838Z,64.57
2023-01-07T10:39:50.777Z,63.74
2023-01-07T10:42:29.863Z,63.38
2023-01-07T10:45:40.811Z,64.22
2023-01-07T10:48:22.784Z,64.03
2023-01-07T10:51:02.389Z,62.47
2023-01-07T10:53:31.861Z,61.43
2023-01-07T10:56:20.392Z,61.70
2023-01-07T10:58:49.318Z,60.96
2023-01-07T11:01:22.896Z,61.36
2023-01-07T11:03:55.235Z,59.97
2023-01-07T11:06:36.554Z,60.72
2023-01-07T11:09:07.887Z,60.16
2023-01-07T11:11:35.363Z,60.44
2023-01-07T11:14:12.933Z,58.19
2023-01-07T11:17:06.310Z,58.72
2023-01-07T11:19:45.883Z,58.91
2023-01-07T11:22:34.046Z,58.52
2023-01-07T11:25:02.476Z,58.09
2023-01-07T11:27:32.298Z,57.98
2023-01-07T11:30:37.937Z,58.69
2023-01-07T11:33:13.855Z,57.24
2023-01-07T11:35:51.513Z,58.06
2023-01-07T11:38:44.570Z,57.13
2023-01-07T11:41:26.188Z,57.57
2023-01-07T11:43:54.668Z,57.03
2023-01-07T11:46:25.866Z,56.43
2023-01-07T11:49:01.050Z,56.41
2023-01-07T11:51:39.796Z,56.83
2023-01-07T11:54:21.926Z,57.46
2023-01-07T11:56:48.636Z,58.21
2023-01-07T11:59:26.768Z,55.43
2023-01-07T12:01:57.053Z,54.98
2023-01-07T12:04:28.712Z,55.55
2023-01-07T12:07:01.921Z,55.31
2023-01-07T12:09:31.461Z,54.61
2023-01-07T12:12:34.533Z,55.98
2023-01-07T12:15:05.225Z,54.81
2023-01-07T12:17:35.239Z,54.03
2023-01-07T12:20:28.027Z,55.28
2023-01-07T12:22:58.434Z,54.13
2023-01-07T12:25:46.814Z,54.60
2023-01-07T12:28:19.747Z,53.94
2023-01-07T12:30:52.204Z,53.79
2023-01-07T12:33:38.996Z,53.80
2023-01-07T12:36:15.744Z,54.02
2023-01-07T12:38:49.580Z,52.62
2023-01-07T12:41:27.239Z,53.25
2023-01-07T12:44:09.543Z,54.21
2023-01-07T12:46:41.820Z,54.13
2023-01-07T12:49:34.703Z,54.63
2023-01-07T12:52:12.016Z,54.35
2023-01-07T12:54:54.566Z,56.00
2023-01-07T12:57:38.001Z,53.89
2023-01-07T13:00:42.112Z,54.70
2023-01-07T13:03:45.710Z,55.23
2023-01-07T13:06:22.113Z,55.14
2023-01-07T13:08:58.851Z,53.98
2023-01-07T13:11:52.984Z,54.77
2023-01-07T13:14:26.057Z,56.01
2023-01-07T13:16:56.094Z,54.62
2023-01-07T13:19:22.737Z,56.98
2023-01-07T13:21:50.219Z,55.13
2023-01-07T13:24:56.281Z,55.56
2023-01-07T13:27:50.802Z,57.07
2023-01-07T13:30:27.713Z,55.13
2023-01-07T13:33:05.500Z,56.03
2023-01-07T13:35:42.601Z,55.96
2023-01-07T13:38:40.002Z,55.74
2023-01-07T13:41:59.275Z,56.16
2023-01-07T13:44:54.802Z,56.86
2023-01-07T13:47:25.591Z,56.63
2023-01-07T13:50:01.667Z,56.91
2023-01-07T13:52:31.711Z,56.45
2023-01-07T13:55:22.480Z,56.73
2023-01-07T13:57:49.097Z,57.17
2023-01-07T14:00:39.463Z,58.24
2023-01-07T14:03:53.515Z,59.46
2023-01-07T14:06:20.338Z,62.09
2023-01-07T14:08:50.675Z,62.71
2023-01-07T14:11:42.272Z,62.85
2023-01-07T14:14:26.935Z,63.37
2023-01-07T14:16:59.213Z,63.62
2023-01-07T14:19:53.832Z,65.13
2023-01-07T14:22:20.301Z,65.64
2023-01-07T14:24:55.866Z,65.99
2023-01-07T14:27:47.196Z,67.57
2023-01-07T14:30:51.156Z,67.79
2023-01-07T14:33:19.507Z,68.45
2023-01-07T14:35:56.433Z,70.72
2023-01-07T14:38:32.237Z,72.55
2023-01-07T14:41:05.867Z,73.32
2023-01-07T14:43:46.027Z,76.22
2023-01-07T14:46:24.829Z,77.39
2023-01-07T14:49:03.633Z,77.91
2023-01-07T14:52:01.846Z,77.66
2023-01-07T14:54:59.544Z,78.39
2023-01-07T14:57:44.233Z,81.65
2023-01-07T15:00:54.877Z,85.19
2023-01-07T15:03:24.697Z,83.84
2023-01-07T15:06:09.846Z,82.27
2023-01-07T15:09:12.726Z,83.75
2023-01-07T15:12:00.526Z,83.73
2023-01-07T15:14:49.056Z,84.47
2023-01-07T15:17:16.903Z,84.23
2023-01-07T15:19:44.382Z,83.72
2023-01-07T15:22:25.939Z,83.10
2023-01-07T15:25:09.380Z,82.22
2023-01-07T15:27:50.796Z,81.90
2023-01-07T15:30:32.585Z,82.31
2023-01-07T15:33:20.707Z,83.02
2023-01-07T15:35:47.521Z,83.50
2023-01-07T15:38:27.649Z,83.58
2023-01-07T15:40:56.533Z,83.97
2023-01-07T15:43:26.768Z,84.09
2023-01-07T15:46:08.056Z,83.74
2023-01-07T15:48:34.646Z,83.14
2023-01-07T15:51:01.303Z,83.33
2023-01-07T15:53:29.597Z,83.54
2023-01-07T15:56:02.045Z,84.34
2023-01-07T15:58:44.970Z,85.09
2023-01-07T16:01:17.362Z,85.10
2023-01-07T16:03:44.777Z,85.16
2023-01-07T16:06:26.517Z,86.63
2023-01-07T16:08:53.240Z,89.21
2023-01-07T16:11:25.873Z,90.08
2023-01-07T16:13:57.506Z,90.76
2023-01-07T16:16:25.034Z,91.43
2023-01-07T16:18:59.717Z,92.05
2023-01-07T16:21:35.239Z,92.48
2023-01-07T16:24:01.928Z,92.01
2023-01-07T16:26:37.615Z,91.62
2023-01-07T16:29:16.783Z,92.77
2023-01-07T16:31:44.054Z,92.52
2023-01-07T16:34:33.824Z,92.65
2023-01-07T16:37:02.627Z,92.40
2023-01-07T16:39:39.299Z,93.33
2023-01-07T16:42:23.007Z,93.36
2023-01-07T16:44:52.645Z,93.43
2023-01-07T16:47:24.845Z,92.77
2023-01-07T16:49:57.120Z,92.84
2023-01-07T16:52:31.590Z,93.08
2023-01-07T16:54:58.259Z,93.31
2023-01-07T16:57:30.644Z,93.38
2023-01-07T16:59:58.995Z,92.82
2023-01-07T17:02:32.721Z,92.98
2023-01-07T17:05:22.846Z,93.57
2023-01-07T17:07:54.887Z,94.15
2023-01-07T17:10:27.416Z,93.93
2023-01-07T17:13:15.759Z,93.71
2023-01-07T17:15:43.689Z,94.96
2023-01-07T17:18:13.093Z,95.81
2023-01-07T17:20:51.837Z,96.78
2023-01-07T17:23:27.620Z,96.68
2023-01-07T17:26:03.468Z,97.23
2023-01-07T17:28:32.983Z,99.67
2023-01-07T17:31:00.845Z,99.37
2023-01-07T17:33:27.715Z,99.14
2023-01-07T17:35:54.422Z,99.20
2023-01-07T17:38:21.127Z,99.38
2023-01-07T17:40:48.195Z,98.59
2023-01-07T17:43:35.387Z,98.97
2023-01-07T17:46:06.181Z,99.23
2023-01-07T17:48:33.398Z,99.17
2023-01-07T17:51:01.365Z,99.87
2023-01-07T17:53:34.057Z,99.57
2023-01-07T17:56:01.848Z,98.59
2023-01-07T17:58:33.691Z,98.08
2023-01-07T18:01:02.684Z,97.25
2023-01-07T18:03:29.445Z,98.38
2023-01-07T18:05:56.048Z,99.47
2023-01-07T18:08:22.604Z,99.42
2023-01-07T18:11:10.261Z,99.80
2023-01-07T18:13:36.885Z,100.00
2023-01-07T18:16:03.692Z,100.00
2023-01-07T18:18:30.307Z,100.00
2023-01-07T18:20:58.158Z,100.00
2023-01-07T18:23:25.052Z,100.00
2023-01-07T18:25:51.632Z,100.00
2023-01-07T18:28:18.159Z,100.00
2023-01-07T18:30:44.720Z,100.00
2023-01-07T18:33:11.860Z,100.00
2023-01-07T18:35:41.720Z,100.00
2023-01-07T18:38:13.323Z,99.17
2023-01-07T18:40:40.166Z,98.30
2023-01-07T18:43:07.367Z,97.85
2023-01-07T18:45:33.837Z,99.11
2023-01-07T18:48:00.408Z,100.00
2023-01-07T18:50:27.099Z,100.00
2023-01-07T18:52:53.678Z,100.00
2023-01-07T18:55:21.029Z,100.00
2023-01-07T18:57:47.671Z,100.00
2023-01-07T19:00:15.735Z,100.00
2023-01-07T19:02:42.330Z,100.00
2023-01-07T19:05:09.015Z,100.00
2023-01-07T19:07:36.215Z,100.00
2023-01-07T19:10:04.788Z,100.00
2023-01-07T19:12:31.387Z,100.00
2023-01-07T19:14:57.956Z,100.00
2023-01-07T19:17:24.599Z,100.00
2023-01-07T19:19:51.871Z,100.00
2023-01-07T19:22:18.506Z,100.00
2023-01-07T19:24:45.132Z,100.00
2023-01-07T19:27:12.064Z,100.00
2023-01-07T19:29:38.670Z,100.00
2023-01-07T19:32:05.636Z,100.00
2023-01-07T19:34:32.247Z,100.00
2023-01-07T19:36:58.748Z,100.00
2023-01-07T19:39:25.334Z,100.00
2023-01-07T19:41:52.030Z,100.00
2023-01-07T19:44:18.701Z,100.00
2023-01-07T19:46:45.228Z,100.00
2023-01-07T19:49:13.457Z,100.00
2023-01-07T19:51:41.979Z,100.00
2023-01-07T19:54:11.824Z,100.00
2023-01-07T19:56:40.195Z,100.00
2023-01-07T19:59:07.060Z,100.00
2023-01-07T20:01:33.877Z,100.00
2023-01-07T20:04:01.001Z,100.00
2023-01-07T20:06:29.953Z,100.00
2023-01-07T20:08:58.535Z,100.00
2023-01-07T20:11:25.397Z,100.00
2023-01-07T20:13:52.055Z,100.00
2023-01-07T20:16:23.449Z,100.00
2023-01-07T20:18:52.608Z,100.00
2023-01-07T20:21:21.897Z,100.00
2023-01-07T20:23:49.062Z,100.00
2023-01-07T20:26:18.638Z,100.00
2023-01-07T20:28:45.663Z,100.00
2023-01-07T20:31:14.644Z,100.00
2023-01-07T20:33:42.402Z,100.00
2023-01-07T20:36:11.915Z,100.00
2023-01-07T20:38:39.505Z,100.00
2023-01-07T20:41:08.360Z,100.00
2023-01-07T20:43:36.115Z,100.00
2023-01-07T20:46:04.671Z,100.00
2023-01-07T20:48:31.874Z,100.00
2023-01-07T20:50:58.724Z,100.00
2023-01-07T20:53:28.487Z,100.00
2023-01-07T20:55:59.541Z,100.00
2023-01-07T20:58:29.727Z,100.00
2023-01-07T21:00:56.468Z,100.00
2023-01-07T21:03:23.176Z,100.00
2023-01-07T21:05:49.843Z,100.00
2023-01-07T21:08:16.429Z,100.00
2023-01-07T21:10:43.784Z,100.00
2023-01-07T21:13:10.356Z,100.00
2023-01-07T21:15:38.532Z,100.00
2023-01-07T21:18:05.128Z,100.00
2023-01-07T21:20:31.883Z,100.00
2023-01-07T21:22:58.519Z,100.00
2023-01-07T21:25:25.068Z,100.00
2023-01-07T21:27:51.740Z,100.00
2023-01-07T21:30:19.401Z,100.00
2023-01-07T21:32:47.291Z,100.00
2023-01-07T21:35:14.763Z,100.00
2023-01-07T21:37:41.387Z,100.00
2023-01-07T21:40:08.501Z,100.00
2023-01-07T21:42:36.466Z,100.00
2023-01-07T21:45:03.351Z,100.00
2023-01-07T21:47:30.117Z,100.00
2023-01-07T21:49:56.928Z,100.00
2023-01-07T21:52:23.611Z,100.00
2023-01-07T21:54:51.926Z,100.00
2023-01-07T21:57:19.620Z,100.00
2023-01-07T21:59:46.371Z,100.00
2023-01-07T22:02:13.795Z,100.00
2023-01-07T22:04:40.895Z,100.00
2023-01-07T22:07:14.081Z,100.00
2023-01-07T22:09:40.848Z,100.00
2023-01-07T22:12:08.710Z,100.00
2023-01-07T22:14:35.268Z,100.00
2023-01-07T22:17:01.969Z,100.00
2023-01-07T22:19:28.703Z,100.00
2023-01-07T22:21:55.424Z,100.00
2023-01-07T22:24:22.117Z,100.00
2023-01-07T22:26:48.804Z,100.00
2023-01-07T22:29:16.413Z,100.00
2023-01-07T22:31:43.130Z,100.00
2023-01-07T22:34:10.332Z,100.00
2023-01-07T22:36:42.224Z,100.00
2023-01-07T22:39:18.119Z,100.00
2023-01-07T22:41:45.949Z,100.00
2023-01-07T22:44:22.075Z,100.00
2023-01-07T22:46:50.965Z,100.00
2023-01-07T22:49:18.899Z,100.00
2023-01-07T22:51:48.389Z,100.00
2023-01-07T22:54:16.283Z,100.00
2023-01-07T22:56:44.208Z,100.00
2023-01-07T22:59:10.812Z,100.00
2023-01-07T23:01:38.249Z,100.00
2023-01-07T23:04:05.272Z,100.00
2023-01-07T23:06:31.926Z,100.00
2023-01-07T23:08:58.610Z,100.00
2023-01-07T23:11:43.808Z,100.00
2023-01-07T23:14:10.486Z,100.00
2023-01-07T23:16:37.644Z,100.00
2023-01-07T23:19:04.490Z,100.00
2023-01-07T23:21:34.358Z,100.00
2023-01-07T23:24:01.029Z,100.00
2023-01-07T23:26:27.588Z,100.00
2023-01-07T23:28:54.476Z,100.00
2023-01-07T23:31:21.175Z,100.00
2023-01-07T23:33:47.807Z,100.00
2023-01-07T23:36:14.436Z,100.00
2023-01-07T23:38:41.032Z,100.00
2023-01-07T23:41:09.517Z,100.00
2023-01-07T23:43:36.555Z,100.00
2023-01-07T23:46:05.931Z,100.00
2023-01-07T23:48:34.919Z,100.00
2023-01-07T23:51:13.813Z,100.00
2023-01-07T23:53:40.714Z,100.00
2023-01-07T23:56:08.197Z,100.00
2023-01-07T23:58:35.663Z,100.00
